Aeroporto :
LOGIN :

Iscrizione | Disclaimer

   EN    FR    IT 

 










Sommario :    VFR   VFR Marginale   IFR   IFR Intensivo   IFR Molto Intensivo
Visibilità : 
Base nubi : 
>= 8 km
>= 3000ft
5 / 8 km
1000 / 3000 ft
1500m / 5 km
500 / 1000 ft
800 / 1500m
200 / 500 ft
< 800m
< 200 ft
Simboli :   Temporali  Nebbia  Neve Forte  Precipitazioni Forti  Vento > 20 kt
SIGMETs :   Varie  Temporali  Ghiacco  Turbolenza  Onda orograficha  Ceneri Vulcaniche






- Altitudine del aeroporto : -15 ft
- Codice IATA : RTM


EHRD - Rotterdam Zestienhoven

ULTIMO METAR :
  • 071455Z AUTO 21011KT 180V240 9999 BKN032 OVC037 17/10 Q1018 NOSIG

METARs OBSOLETI :
  • 071425Z AUTO 21014KT 180V250 9999 BKN032 OVC037 17/10 Q1018 NOSIG
  • 071355Z AUTO 21012KT 180V240 9999 BKN029 OVC033 17/11 Q1019 NOSIG
  • 071325Z AUTO 22013KT 9999 FEW028 SCT033 BKN037 17/12 Q1019 NOSIG
  • 071255Z AUTO 22010KT 190V260 9999 SCT024 BKN030 OVC035 16/11 Q1019 NOSIG
  • 071225Z AUTO 22014KT 190V260 9999 FEW023 OVC037 16/11 Q1020 NOSIG

TAF TAF EHRD
Valido dal 07 a 12 ore il 08 a 18 ore UTC


071111Z 0712/0818 22015KT 9999 FEW035
BECMG 0723/0802 29008KT
TEMPO 0723/0802 6000 RA SHRA SCT014 BKN018 FEW025CB



MetMap, La meteo Aeronautica in un colpo d'occhio ! - Copyright ORBIFLY Dicembre 2007 - Disclaimer

ORBIFLY MET'MAP TEAM :

Programmazione e sviluppo : Alexandra Zaïnal
Concezione : Baudouin d'Aumeries
Supporto tecnico e logistico : Manuel Goepfert
Aiuto : Marc-Olivier Méhu
Aiuto per la traduzione : Arnaldo La Scala




FONTI E CREDITI :

   NOAA